createdAt,value
2022-08-17T00:01:56.909Z,100851.47
2022-08-17T00:04:52.024Z,100854.11
2022-08-17T00:07:47.695Z,100848.63
2022-08-17T00:10:39.646Z,100844.75
2022-08-17T00:13:33.421Z,100846.95
2022-08-17T00:16:56.310Z,100842.27
2022-08-17T00:19:42.410Z,100842.13
2022-08-17T00:22:36.293Z,100842.02
2022-08-17T00:25:27.862Z,100849.54
2022-08-17T00:28:18.800Z,100851.62
2022-08-17T00:31:13.123Z,100848.38
2022-08-17T00:34:02.845Z,100840.98
2022-08-17T00:36:52.682Z,100835.45
2022-08-17T00:39:48.359Z,100831.85
2022-08-17T00:42:39.813Z,100831.10
2022-08-17T00:45:30.020Z,100830.98
2022-08-17T00:48:28.984Z,100824.92
2022-08-17T00:51:27.979Z,100818.84
2022-08-17T00:54:22.320Z,100821.20
2022-08-17T00:57:16.651Z,100826.88
2022-08-17T01:00:13.121Z,100828.48
2022-08-17T01:03:07.673Z,100827.88
2022-08-17T01:06:04.576Z,100829.20
2022-08-17T01:08:57.450Z,100839.55
2022-08-17T01:11:50.327Z,100848.47
2022-08-17T01:14:41.988Z,100852.05
2022-08-17T01:17:32.484Z,100849.09
2022-08-17T01:20:22.486Z,100857.58
2022-08-17T01:23:12.966Z,100862.08
2022-08-17T01:26:13.372Z,100855.63
2022-08-17T01:29:05.204Z,100852.89
2022-08-17T01:31:58.728Z,100861.67
2022-08-17T01:34:50.992Z,100864.14
2022-08-17T01:37:43.758Z,100852.44
2022-08-17T01:40:39.109Z,100860.81
2022-08-17T01:43:33.091Z,100871.17
2022-08-17T01:46:28.528Z,100867.02
2022-08-17T01:49:18.830Z,100854.57
2022-08-17T01:52:12.030Z,100850.48
2022-08-17T01:55:05.908Z,100847.69
2022-08-17T01:57:58.188Z,100846.86
2022-08-17T02:01:00.085Z,100846.21
2022-08-17T02:04:01.152Z,100858.25
2022-08-17T02:06:53.147Z,100868.41
2022-08-17T02:09:52.671Z,100863.55
2022-08-17T02:12:42.960Z,100854.86
2022-08-17T02:15:34.804Z,100850.30
2022-08-17T02:18:26.038Z,100850.10
2022-08-17T02:21:16.897Z,100858.77
2022-08-17T02:24:08.602Z,100864.10
2022-08-17T02:26:58.930Z,100872.73
2022-08-17T02:29:49.206Z,100879.20
2022-08-17T02:32:40.486Z,100865.17
2022-08-17T02:35:31.131Z,100853.39
2022-08-17T02:38:21.419Z,100851.77
2022-08-17T02:41:13.306Z,100856.11
2022-08-17T02:44:04.454Z,100853.57
2022-08-17T02:46:56.687Z,100857.16
2022-08-17T02:49:54.461Z,100863.36
2022-08-17T02:52:55.246Z,100851.14
2022-08-17T02:55:55.435Z,100835.98
2022-08-17T02:58:48.371Z,100839.85
2022-08-17T03:01:38.679Z,100848.11
2022-08-17T03:04:28.884Z,100853.36
2022-08-17T03:07:20.321Z,100851.89
2022-08-17T03:10:13.064Z,100852.91
2022-08-17T03:13:02.905Z,100856.98
2022-08-17T03:15:53.531Z,100865.99
2022-08-17T03:18:43.812Z,100856.92
2022-08-17T03:21:33.546Z,100865.79
2022-08-17T03:24:25.129Z,100862.58
2022-08-17T03:27:18.581Z,100861.09
2022-08-17T03:30:13.161Z,100862.98
2022-08-17T03:33:06.473Z,100872.89
2022-08-17T03:35:57.034Z,100873.17
2022-08-17T03:38:47.310Z,100874.50
2022-08-17T03:41:38.437Z,100881.88
2022-08-17T03:44:29.072Z,100881.39
2022-08-17T03:47:36.700Z,100878.04
2022-08-17T03:50:45.574Z,100883.75
2022-08-17T03:54:04.718Z,100889.81
2022-08-17T03:57:04.949Z,100896.89
2022-08-17T03:59:56.022Z,100889.93
2022-08-17T04:02:46.798Z,100889.30
2022-08-17T04:05:37.334Z,100899.54
2022-08-17T04:08:28.226Z,100898.89
2022-08-17T04:11:18.546Z,100890.44
2022-08-17T04:14:09.939Z,100897.17
2022-08-17T04:17:00.332Z,100907.74
2022-08-17T04:19:51.187Z,100908.86
2022-08-17T04:22:42.042Z,100907.42
2022-08-17T04:25:34.588Z,100910.64
2022-08-17T04:28:24.963Z,100893.56
2022-08-17T04:31:15.984Z,100895.06
2022-08-17T04:34:06.126Z,100907.77
2022-08-17T04:36:58.948Z,100907.02
2022-08-17T04:40:09.318Z,100902.61
2022-08-17T04:43:07.382Z,100916.44
2022-08-17T04:46:00.223Z,100926.60
2022-08-17T04:48:51.708Z,100926.90
2022-08-17T04:51:47.913Z,100927.95
2022-08-17T04:54:45.774Z,100919.26
2022-08-17T04:57:39.334Z,100917.23
2022-08-17T05:00:31.431Z,100923.83
2022-08-17T05:03:22.418Z,100916.54
2022-08-17T05:06:13.777Z,100901.61
2022-08-17T05:09:04.399Z,100906.94
2022-08-17T05:11:55.360Z,100923.10
2022-08-17T05:14:46.919Z,100927.58
2022-08-17T05:17:37.309Z,100916.66
2022-08-17T05:20:28.564Z,100928.63
2022-08-17T05:23:22.001Z,100950.67
2022-08-17T05:26:25.495Z,100947.27
2022-08-17T05:29:18.895Z,100930.77
2022-08-17T05:32:38.033Z,100928.67
2022-08-17T05:35:25.462Z,100925.35
2022-08-17T05:38:16.566Z,100915.41
2022-08-17T05:41:08.822Z,100910.63
2022-08-17T05:43:58.803Z,100910.56
2022-08-17T05:46:54.409Z,100899.79
2022-08-17T05:49:44.850Z,100900.73
2022-08-17T05:52:47.230Z,100906.02
2022-08-17T05:55:46.157Z,100916.24
2022-08-17T05:58:49.606Z,100909.71
2022-08-17T06:01:56.307Z,100900.01
2022-08-17T06:05:03.443Z,100888.95
2022-08-17T06:08:08.034Z,100874.45
2022-08-17T06:11:15.934Z,100894.89
2022-08-17T06:14:33.046Z,100891.95
2022-08-17T06:17:27.434Z,100879.80
2022-08-17T06:20:18.414Z,100865.79
2022-08-17T06:23:14.672Z,100844.64
2022-08-17T06:26:10.111Z,100840.02
2022-08-17T06:29:08.227Z,100842.42
2022-08-17T06:32:12.909Z,100833.45
2022-08-17T06:35:07.075Z,100840.08
2022-08-17T06:38:36.875Z,100853.62
2022-08-17T06:41:31.579Z,100852.17
2022-08-17T06:44:43.537Z,100869.60
2022-08-17T06:47:49.320Z,100881.70
2022-08-17T06:50:44.269Z,100886.34
2022-08-17T06:53:42.235Z,100885.33
2022-08-17T06:56:53.295Z,100889.30
2022-08-17T06:59:54.858Z,100883.16
2022-08-17T07:02:55.465Z,100907.75
2022-08-17T07:05:49.587Z,100923.14
2022-08-17T07:08:50.838Z,100928.39
2022-08-17T07:11:49.043Z,100937.60
2022-08-17T07:14:47.297Z,100937.96
2022-08-17T07:17:47.760Z,100941.02
2022-08-17T07:20:44.426Z,100955.60
2022-08-17T07:23:54.393Z,100953.73
2022-08-17T07:26:45.112Z,100953.25
2022-08-17T07:29:41.395Z,100948.91
2022-08-17T07:32:36.576Z,100943.94
2022-08-17T07:35:41.266Z,100934.05
2022-08-17T07:38:36.321Z,100924.44
2022-08-17T07:41:53.424Z,100928.48
2022-08-17T07:44:51.654Z,100948.49
2022-08-17T07:47:59.551Z,100958.98
2022-08-17T07:50:53.251Z,100950.16
2022-08-17T07:53:43.215Z,100920.38
2022-08-17T07:56:41.189Z,100902.91
2022-08-17T07:59:34.223Z,100899.25
2022-08-17T08:02:34.309Z,100908.75
2022-08-17T08:05:44.292Z,100920.63
2022-08-17T08:08:42.461Z,100917.75
2022-08-17T08:11:35.801Z,100924.25
2022-08-17T08:14:31.080Z,100947.02
2022-08-17T08:17:27.365Z,100968.27
2022-08-17T08:20:37.615Z,100980.30
2022-08-17T08:23:43.038Z,100996.40
2022-08-17T08:26:42.418Z,101008.86
2022-08-17T08:29:44.930Z,101011.06
2022-08-17T08:32:48.125Z,101020.16
2022-08-17T08:35:47.361Z,101003.85
2022-08-17T08:38:48.187Z,100985.23
2022-08-17T08:41:49.441Z,100949.89
2022-08-17T08:45:00.159Z,100931.48
2022-08-17T08:48:45.868Z,100911.41
2022-08-17T08:51:40.131Z,100931.32
2022-08-17T08:54:42.105Z,100963.86
2022-08-17T08:57:37.475Z,100987.20
2022-08-17T09:00:29.286Z,101012.16
2022-08-17T09:03:52.297Z,101007.34
2022-08-17T09:06:56.600Z,101013.83
2022-08-17T09:09:59.347Z,101023.19
2022-08-17T09:12:59.119Z,101040.14
2022-08-17T09:15:56.048Z,101052.91
2022-08-17T09:19:01.333Z,101060.39
2022-08-17T09:21:59.735Z,101053.20
2022-08-17T09:24:57.333Z,101051.43
2022-08-17T09:27:57.513Z,101050.95
2022-08-17T09:30:54.322Z,101046.05
2022-08-17T09:33:48.384Z,101037.04
2022-08-17T09:36:45.977Z,101023.31
2022-08-17T09:39:41.158Z,101016.66
2022-08-17T09:42:39.194Z,101014.67
2022-08-17T09:45:37.312Z,101001.56
2022-08-17T09:48:32.393Z,100992.38
2022-08-17T09:51:31.630Z,100992.78
2022-08-17T09:54:39.303Z,100992.10
2022-08-17T09:57:43.623Z,100987.58
2022-08-17T10:00:36.837Z,100975.39
2022-08-17T10:03:50.984Z,100971.45
2022-08-17T10:06:51.946Z,100985.52
2022-08-17T10:09:56.216Z,100999.23
2022-08-17T10:12:58.112Z,101008.03
2022-08-17T10:15:56.030Z,101023.53
2022-08-17T10:18:56.974Z,101026.88
2022-08-17T10:22:32.720Z,101036.23
2022-08-17T10:25:54.135Z,101043.98
2022-08-17T10:28:52.750Z,101037.95
2022-08-17T10:31:49.928Z,101040.52
2022-08-17T10:35:01.880Z,101052.81
2022-08-17T10:38:24.772Z,101060.65
2022-08-17T10:41:36.838Z,101073.39
2022-08-17T10:44:43.191Z,101075.73
2022-08-17T10:48:04.755Z,101072.35
2022-08-17T10:51:07.524Z,101061.69
2022-08-17T10:54:02.250Z,101064.73
2022-08-17T10:56:54.340Z,101071.80
2022-08-17T10:59:55.976Z,101080.24
2022-08-17T11:02:51.250Z,101082.39
2022-08-17T11:05:54.224Z,101081.63
2022-08-17T11:09:14.285Z,101085.60
2022-08-17T11:12:16.490Z,101077.71
2022-08-17T11:15:23.283Z,101065.67
2022-08-17T11:18:42.120Z,101062.98
2022-08-17T11:21:58.400Z,101066.87
2022-08-17T11:24:54.870Z,101062.39
2022-08-17T11:27:53.947Z,101059.07
2022-08-17T11:30:53.576Z,101052.03
2022-08-17T11:34:09.416Z,101050.00
2022-08-17T11:37:29.824Z,101047.79
2022-08-17T11:40:43.245Z,101036.15
2022-08-17T11:44:03.771Z,101032.04
2022-08-17T11:47:24.027Z,101024.11
2022-08-17T11:50:56.481Z,101020.67
2022-08-17T11:54:31.625Z,101027.86
2022-08-17T11:57:47.486Z,101043.24
2022-08-17T12:01:07.822Z,101045.27
2022-08-17T12:04:18.656Z,101046.90
2022-08-17T12:07:18.197Z,101036.24
2022-08-17T12:10:12.365Z,101020.00
2022-08-17T12:13:11.984Z,101003.96
2022-08-17T12:16:02.670Z,100992.38
2022-08-17T12:18:58.754Z,100991.39
2022-08-17T12:21:54.667Z,100988.83
2022-08-17T12:24:55.538Z,100991.34
2022-08-17T12:28:06.401Z,100988.95
2022-08-17T12:31:07.665Z,100999.70
2022-08-17T12:34:00.564Z,101006.39
2022-08-17T12:36:59.884Z,101027.38
2022-08-17T12:39:58.013Z,101034.70
2022-08-17T12:42:58.559Z,101032.25
2022-08-17T12:46:01.275Z,101018.99
2022-08-17T12:49:24.074Z,101009.42
2022-08-17T12:52:18.955Z,100996.62
2022-08-17T12:55:21.365Z,101004.01
2022-08-17T12:58:19.871Z,101006.17
2022-08-17T13:01:17.857Z,100994.98
2022-08-17T13:04:09.776Z,100996.20
2022-08-17T13:07:00.444Z,101001.82
2022-08-17T13:09:55.314Z,100999.10
2022-08-17T13:12:45.942Z,100980.30
2022-08-17T13:15:44.394Z,100961.49
2022-08-17T13:18:48.056Z,100943.64
2022-08-17T13:21:38.960Z,100940.58
2022-08-17T13:24:38.254Z,100936.81
2022-08-17T13:27:31.616Z,100977.59
2022-08-17T13:30:28.168Z,100989.46
2022-08-17T13:33:43.276Z,100980.97
2022-08-17T13:36:37.767Z,100985.30
2022-08-17T13:39:41.658Z,100997.10
2022-08-17T13:42:53.028Z,101023.90
2022-08-17T13:45:54.184Z,101056.11
2022-08-17T13:48:44.564Z,101069.20
2022-08-17T13:51:42.938Z,101084.77
2022-08-17T13:54:37.230Z,101091.48
2022-08-17T13:57:28.599Z,101101.77
2022-08-17T14:00:32.837Z,101106.30
2022-08-17T14:03:25.280Z,101125.70
2022-08-17T14:06:49.349Z,101144.45
2022-08-17T14:09:36.798Z,101160.59
2022-08-17T14:12:31.994Z,101192.79
2022-08-17T14:15:24.857Z,101192.04
2022-08-17T14:18:56.285Z,101181.27
2022-08-17T14:21:47.030Z,101176.65
2022-08-17T14:24:44.671Z,101161.64
2022-08-17T14:27:47.097Z,101164.35
2022-08-17T14:30:43.517Z,101176.54
2022-08-17T14:33:35.069Z,101187.02
2022-08-17T14:36:25.920Z,101182.45
2022-08-17T14:39:17.194Z,101155.11
2022-08-17T14:42:07.783Z,101136.00
2022-08-17T14:45:00.343Z,101134.61
2022-08-17T14:47:50.544Z,101120.65
2022-08-17T14:50:46.224Z,101092.05
2022-08-17T14:53:37.835Z,101082.73
2022-08-17T14:56:28.575Z,101079.41
2022-08-17T14:59:28.251Z,101074.70
2022-08-17T15:02:18.806Z,101059.50
2022-08-17T15:05:10.376Z,101019.58
2022-08-17T15:08:01.461Z,100964.11
2022-08-17T15:10:54.202Z,100896.40
2022-08-17T15:13:52.169Z,100901.38
2022-08-17T15:16:44.000Z,100962.32
2022-08-17T15:19:34.767Z,100973.05
2022-08-17T15:22:28.143Z,100969.85
2022-08-17T15:25:22.193Z,100973.88
2022-08-17T15:28:13.479Z,100970.20
2022-08-17T15:31:03.976Z,100965.59
2022-08-17T15:33:54.750Z,100954.14
2022-08-17T15:36:49.145Z,100949.13
2022-08-17T15:39:40.262Z,100946.93
2022-08-17T15:42:30.501Z,100944.06
2022-08-17T15:45:26.672Z,100945.64
2022-08-17T15:48:22.815Z,100941.27
2022-08-17T15:51:15.080Z,100943.41
2022-08-17T15:54:22.476Z,100953.42
2022-08-17T15:57:13.659Z,100958.33
2022-08-17T16:00:04.037Z,100948.62
2022-08-17T16:03:46.253Z,100950.02
2022-08-17T16:06:17.194Z,100960.00
2022-08-17T16:09:07.578Z,100957.66
2022-08-17T16:11:57.973Z,100955.41
2022-08-17T16:14:50.346Z,100951.92
2022-08-17T16:17:41.645Z,100950.52
2022-08-17T16:20:33.020Z,100947.95
2022-08-17T16:23:23.760Z,100941.19
2022-08-17T16:26:13.642Z,100931.01
2022-08-17T16:29:08.033Z,100921.38
2022-08-17T16:31:58.870Z,100893.52
2022-08-17T16:34:49.214Z,100886.48
2022-08-17T16:37:41.793Z,100883.35
2022-08-17T16:40:36.743Z,100889.63
2022-08-17T16:43:28.395Z,100885.63
2022-08-17T16:46:19.256Z,100894.27
2022-08-17T16:49:10.982Z,100897.30
2022-08-17T16:52:14.975Z,100899.39
2022-08-17T16:55:24.622Z,100893.76
2022-08-17T16:58:16.046Z,100891.29
2022-08-17T17:01:08.016Z,100890.42
2022-08-17T17:04:04.573Z,100885.98
2022-08-17T17:07:02.855Z,100872.46
2022-08-17T17:09:56.300Z,100870.41
2022-08-17T17:13:01.689Z,100863.28
2022-08-17T17:16:00.299Z,100869.10
2022-08-17T17:19:05.342Z,100871.13
2022-08-17T17:22:03.976Z,100867.65
2022-08-17T17:25:03.112Z,100874.88
2022-08-17T17:28:02.903Z,100868.70
2022-08-17T17:30:59.187Z,100862.70
2022-08-17T17:33:54.637Z,100867.67
2022-08-17T17:36:50.271Z,100866.70
2022-08-17T17:39:45.419Z,100857.49
2022-08-17T17:42:35.826Z,100845.65
2022-08-17T17:45:34.626Z,100843.88
2022-08-17T17:48:24.911Z,100835.02
2022-08-17T17:52:06.720Z,100843.92
2022-08-17T17:54:40.738Z,100853.29
2022-08-17T17:57:41.884Z,100840.10
2022-08-17T18:00:38.015Z,100831.42
2022-08-17T18:03:50.681Z,100835.93
2022-08-17T18:06:50.493Z,100827.55
2022-08-17T18:10:01.620Z,100815.93
2022-08-17T18:13:00.127Z,100812.27
2022-08-17T18:15:53.043Z,100804.36
2022-08-17T18:18:44.838Z,100803.40
2022-08-17T18:21:39.801Z,100809.08
2022-08-17T18:24:35.667Z,100813.37
2022-08-17T18:27:35.621Z,100805.92
2022-08-17T18:30:31.201Z,100801.55
2022-08-17T18:33:26.939Z,100800.71
2022-08-17T18:36:29.571Z,100793.13
2022-08-17T18:39:27.018Z,100800.98
2022-08-17T18:42:28.311Z,100809.50
2022-08-17T18:45:35.362Z,100812.30
2022-08-17T18:48:33.153Z,100810.27
2022-08-17T18:51:41.016Z,100811.86
2022-08-17T18:54:32.942Z,100816.59
2022-08-17T18:57:31.785Z,100817.94
2022-08-17T19:00:38.482Z,100821.90
2022-08-17T19:03:29.609Z,100831.95
2022-08-17T19:06:24.977Z,100842.41
2022-08-17T19:09:35.144Z,100849.52
2022-08-17T19:12:32.704Z,100845.91
2022-08-17T19:15:29.069Z,100846.98
2022-08-17T19:18:24.100Z,100840.41
2022-08-17T19:21:21.558Z,100840.27
2022-08-17T19:24:19.542Z,100834.27
2022-08-17T19:27:20.456Z,100825.34
2022-08-17T19:30:17.154Z,100826.63
2022-08-17T19:33:07.197Z,100832.20
2022-08-17T19:36:06.654Z,100829.05
2022-08-17T19:39:05.011Z,100828.01
2022-08-17T19:42:14.041Z,100836.50
2022-08-17T19:45:12.994Z,100846.41
2022-08-17T19:48:13.523Z,100831.18
2022-08-17T19:51:07.358Z,100828.80
2022-08-17T19:54:06.705Z,100832.96
2022-08-17T19:57:05.934Z,100822.53
2022-08-17T20:00:00.229Z,100803.20
2022-08-17T20:02:57.578Z,100798.98
2022-08-17T20:06:11.904Z,100794.39
2022-08-17T20:09:15.167Z,100788.27
2022-08-17T20:12:10.635Z,100787.42
2022-08-17T20:15:05.553Z,100787.02
2022-08-17T20:17:58.918Z,100787.08
2022-08-17T20:20:57.050Z,100787.95
2022-08-17T20:23:58.618Z,100793.67
2022-08-17T20:26:58.812Z,100789.54
2022-08-17T20:30:11.505Z,100779.43
2022-08-17T20:33:05.351Z,100808.19
2022-08-17T20:36:17.335Z,100825.83
2022-08-17T20:39:34.057Z,100813.16
2022-08-17T20:42:35.163Z,100805.58
2022-08-17T20:45:54.125Z,100791.84
2022-08-17T20:48:47.649Z,100797.67
2022-08-17T20:51:43.357Z,100811.88
2022-08-17T20:54:52.982Z,100827.92
2022-08-17T20:57:50.423Z,100839.66
2022-08-17T21:00:46.831Z,100851.91
2022-08-17T21:03:59.188Z,100836.59
2022-08-17T21:07:19.919Z,100830.78
2022-08-17T21:10:16.198Z,100819.73
2022-08-17T21:13:38.820Z,100807.55
2022-08-17T21:16:51.558Z,100795.95
2022-08-17T21:20:13.816Z,100805.55
2022-08-17T21:23:21.440Z,100795.94
2022-08-17T21:26:26.733Z,100798.23
2022-08-17T21:29:32.531Z,100799.06
2022-08-17T21:32:31.518Z,100792.00
2022-08-17T21:35:31.133Z,100779.71
2022-08-17T21:38:24.484Z,100781.66
2022-08-17T21:41:23.468Z,100777.00
2022-08-17T21:44:30.520Z,100765.48
2022-08-17T21:47:25.461Z,100753.85
2022-08-17T21:50:23.806Z,100759.52
2022-08-17T21:53:25.387Z,100771.67
2022-08-17T21:56:26.425Z,100778.38
2022-08-17T21:59:27.918Z,100772.96
2022-08-17T22:02:24.345Z,100771.86
2022-08-17T22:05:16.724Z,100766.16
2022-08-17T22:08:19.528Z,100767.18
2022-08-17T22:11:10.418Z,100772.17
2022-08-17T22:14:05.949Z,100776.13
2022-08-17T22:17:20.323Z,100774.05
2022-08-17T22:20:18.483Z,100768.34
2022-08-17T22:23:32.382Z,100766.07
2022-08-17T22:26:25.899Z,100755.95
2022-08-17T22:29:57.571Z,100762.35
2022-08-17T22:32:50.129Z,100754.74
2022-08-17T22:35:42.804Z,100766.18
2022-08-17T22:38:34.089Z,100774.76
2022-08-17T22:41:32.076Z,100764.55
2022-08-17T22:44:29.645Z,100756.50
2022-08-17T22:47:38.935Z,100734.61
2022-08-17T22:50:34.423Z,100740.80
2022-08-17T22:53:58.193Z,100754.16
2022-08-17T22:57:16.212Z,100760.15
2022-08-17T23:00:32.357Z,100752.23
2022-08-17T23:03:25.747Z,100744.88
2022-08-17T23:06:16.559Z,100752.56
2022-08-17T23:09:07.883Z,100774.00
2022-08-17T23:11:59.045Z,100775.63
2022-08-17T23:14:57.811Z,100792.91
2022-08-17T23:17:48.765Z,100817.04
2022-08-17T23:20:41.390Z,100836.20
2022-08-17T23:23:31.844Z,100836.02
2022-08-17T23:26:23.615Z,100808.90
2022-08-17T23:29:14.211Z,100774.25
2022-08-17T23:32:06.197Z,100774.40
2022-08-17T23:34:59.254Z,100786.16
2022-08-17T23:37:49.963Z,100784.79
2022-08-17T23:40:41.233Z,100777.88
2022-08-17T23:43:32.567Z,100780.86
2022-08-17T23:46:25.142Z,100780.91
2022-08-17T23:49:15.850Z,100794.46
2022-08-17T23:52:09.927Z,100816.84
2022-08-17T23:55:01.326Z,100829.27
2022-08-17T23:57:52.210Z,100820.35
